Elm City, North Carolina
Current Conditions -  °F | °C
As of 3:53 PM on Sunday 23 Nov 2014 (Local Time) from KRWI Reporting Station
Overcast Overcast  
Wind Chill: 57°   Ceiling: 11000
Heat Index: 57°   Visibility: 8mi
Dew Point: 54°   Wind: 0mph
Humidity: 89%   Direction: NA
Pressure: 30.05"   Gusts: NA
Location:  35.81°N, 77.86°W
Report Text: KRWI 232053Z AUTO 00000KT 8SM FEW030 SCT065 OVC110 14/12 A3005 RMK AO2 RAE37 SLP176 P0001 60003 T01390122 56028
Loading
Personal Weather Stations






























Interactive Weather Map New forecast layout! Learn more

10-Day Weather Forecast

Advertisements
Track Severe Weather on mobile